sensor_id;sensor_type;location;lat;lon;timestamp;temperature;humidity
43151;DHT22;28755;51.478;5.702;2023-12-28T00:00:46;11.00;99.90
43151;DHT22;28755;51.478;5.702;2023-12-28T00:03:13;11.10;99.90
43151;DHT22;28755;51.478;5.702;2023-12-28T00:05:38;11.10;99.90
43151;DHT22;28755;51.478;5.702;2023-12-28T00:08:04;11.20;99.90
43151;DHT22;28755;51.478;5.702;2023-12-28T00:10:30;11.10;99.90
43151;DHT22;28755;51.478;5.702;2023-12-28T00:12:55;11.20;99.90
43151;DHT22;28755;51.478;5.702;2023-12-28T00:15:22;11.00;99.90
43151;DHT22;28755;51.478;5.702;2023-12-28T00:17:47;11.10;99.90
43151;DHT22;28755;51.478;5.702;2023-12-28T00:20:13;11.00;99.90
43151;DHT22;28755;51.478;5.702;2023-12-28T00:22:39;11.00;99.90
43151;DHT22;28755;51.478;5.702;2023-12-28T00:25:05;11.00;99.90
43151;DHT22;28755;51.478;5.702;2023-12-28T00:27:31;11.00;99.90
43151;DHT22;28755;51.478;5.702;2023-12-28T00:29:56;11.00;99.90
43151;DHT22;28755;51.478;5.702;2023-12-28T00:32:22;11.00;99.90
43151;DHT22;28755;51.478;5.702;2023-12-28T00:34:47;11.00;99.90
43151;DHT22;28755;51.478;5.702;2023-12-28T00:37:13;11.00;99.90
43151;DHT22;28755;51.478;5.702;2023-12-28T00:39:38;11.10;99.90
43151;DHT22;28755;51.478;5.702;2023-12-28T00:42:06;11.10;99.90
43151;DHT22;28755;51.478;5.702;2023-12-28T00:44:32;11.10;99.90
43151;DHT22;28755;51.478;5.702;2023-12-28T00:46:57;11.10;99.90
43151;DHT22;28755;51.478;5.702;2023-12-28T00:49:23;11.10;99.90
43151;DHT22;28755;51.478;5.702;2023-12-28T00:51:48;11.10;99.90
43151;DHT22;28755;51.478;5.702;2023-12-28T00:54:14;11.10;99.90
43151;DHT22;28755;51.478;5.702;2023-12-28T00:56:39;11.10;99.90
43151;DHT22;28755;51.478;5.702;2023-12-28T00:59:05;11.10;99.90
43151;DHT22;28755;51.478;5.702;2023-12-28T01:01:31;11.10;99.90
43151;DHT22;28755;51.478;5.702;2023-12-28T01:03:56;11.20;99.90
43151;DHT22;28755;51.478;5.702;2023-12-28T01:06:22;11.00;99.90
43151;DHT22;28755;51.478;5.702;2023-12-28T01:08:53;10.90;99.90
43151;DHT22;28755;51.478;5.702;2023-12-28T01:11:18;11.20;99.90
43151;DHT22;28755;51.478;5.702;2023-12-28T01:13:44;10.90;99.90
43151;DHT22;28755;51.478;5.702;2023-12-28T01:16:12;11.00;99.90
43151;DHT22;28755;51.478;5.702;2023-12-28T01:18:38;11.00;99.90
43151;DHT22;28755;51.478;5.702;2023-12-28T01:21:03;11.00;99.90
43151;DHT22;28755;51.478;5.702;2023-12-28T01:23:29;11.10;99.90
43151;DHT22;28755;51.478;5.702;2023-12-28T01:25:57;11.10;99.90
43151;DHT22;28755;51.478;5.702;2023-12-28T01:28:23;11.20;99.90
43151;DHT22;28755;51.478;5.702;2023-12-28T01:30:48;11.00;99.90
43151;DHT22;28755;51.478;5.702;2023-12-28T01:33:14;11.20;99.90
43151;DHT22;28755;51.478;5.702;2023-12-28T01:35:40;11.20;99.90
43151;DHT22;28755;51.478;5.702;2023-12-28T01:38:06;11.10;99.90
43151;DHT22;28755;51.478;5.702;2023-12-28T01:40:32;11.20;99.90
43151;DHT22;28755;51.478;5.702;2023-12-28T01:42:57;11.30;99.90
43151;DHT22;28755;51.478;5.702;2023-12-28T01:45:23;11.20;99.90
43151;DHT22;28755;51.478;5.702;2023-12-28T01:47:49;11.00;99.90
43151;DHT22;28755;51.478;5.702;2023-12-28T01:50:16;11.10;99.90
43151;DHT22;28755;51.478;5.702;2023-12-28T01:52:42;11.10;99.90
43151;DHT22;28755;51.478;5.702;2023-12-28T01:55:08;11.10;99.90
43151;DHT22;28755;51.478;5.702;2023-12-28T01:57:34;11.30;99.90
43151;DHT22;28755;51.478;5.702;2023-12-28T02:00:00;11.10;99.90
43151;DHT22;28755;51.478;5.702;2023-12-28T02:02:30;11.10;99.90
43151;DHT22;28755;51.478;5.702;2023-12-28T02:04:56;11.00;99.90
43151;DHT22;28755;51.478;5.702;2023-12-28T02:07:21;11.10;99.90
43151;DHT22;28755;51.478;5.702;2023-12-28T02:09:48;11.00;99.90
43151;DHT22;28755;51.478;5.702;2023-12-28T02:12:13;11.00;99.90
43151;DHT22;28755;51.478;5.702;2023-12-28T02:14:39;11.00;99.90
43151;DHT22;28755;51.478;5.702;2023-12-28T02:17:11;11.10;99.90
43151;DHT22;28755;51.478;5.702;2023-12-28T02:19:47;11.00;99.90
43151;DHT22;28755;51.478;5.702;2023-12-28T02:22:15;10.90;99.90
43151;DHT22;28755;51.478;5.702;2023-12-28T02:25:02;10.90;99.90
43151;DHT22;28755;51.478;5.702;2023-12-28T02:27:27;10.80;99.90
43151;DHT22;28755;51.478;5.702;2023-12-28T02:29:54;10.80;99.90
43151;DHT22;28755;51.478;5.702;2023-12-28T02:32:25;10.80;99.90
43151;DHT22;28755;51.478;5.702;2023-12-28T02:34:57;10.70;99.90
43151;DHT22;28755;51.478;5.702;2023-12-28T02:37:26;10.80;99.90
43151;DHT22;28755;51.478;5.702;2023-12-28T02:39:53;10.80;99.90
43151;DHT22;28755;51.478;5.702;2023-12-28T02:42:19;10.70;99.90
43151;DHT22;28755;51.478;5.702;2023-12-28T02:44:44;10.70;99.90
43151;DHT22;28755;51.478;5.702;2023-12-28T02:47:10;10.70;99.90
43151;DHT22;28755;51.478;5.702;2023-12-28T02:49:36;10.60;99.90
43151;DHT22;28755;51.478;5.702;2023-12-28T02:52:01;10.60;99.90
43151;DHT22;28755;51.478;5.702;2023-12-28T02:54:27;10.70;99.90
43151;DHT22;28755;51.478;5.702;2023-12-28T02:56:52;10.70;99.90
43151;DHT22;28755;51.478;5.702;2023-12-28T02:59:18;10.70;99.90
43151;DHT22;28755;51.478;5.702;2023-12-28T03:01:44;10.70;99.90
43151;DHT22;28755;51.478;5.702;2023-12-28T03:04:09;10.60;99.90
43151;DHT22;28755;51.478;5.702;2023-12-28T03:06:35;10.50;99.90
43151;DHT22;28755;51.478;5.702;2023-12-28T03:09:01;10.50;99.90
43151;DHT22;28755;51.478;5.702;2023-12-28T03:11:26;10.50;99.90
43151;DHT22;28755;51.478;5.702;2023-12-28T03:13:52;10.60;99.90
43151;DHT22;28755;51.478;5.702;2023-12-28T03:16:17;10.60;99.90
43151;DHT22;28755;51.478;5.702;2023-12-28T03:18:43;10.50;99.90
43151;DHT22;28755;51.478;5.702;2023-12-28T03:21:08;10.50;99.90
43151;DHT22;28755;51.478;5.702;2023-12-28T03:23:34;10.50;99.90
43151;DHT22;28755;51.478;5.702;2023-12-28T03:26:00;10.50;99.90
43151;DHT22;28755;51.478;5.702;2023-12-28T03:28:26;10.60;99.90
43151;DHT22;28755;51.478;5.702;2023-12-28T03:30:52;10.60;99.90
43151;DHT22;28755;51.478;5.702;2023-12-28T03:33:17;10.50;99.90
43151;DHT22;28755;51.478;5.702;2023-12-28T03:35:43;10.50;99.90
43151;DHT22;28755;51.478;5.702;2023-12-28T03:38:08;10.50;99.90
43151;DHT22;28755;51.478;5.702;2023-12-28T03:40:34;10.50;99.90
43151;DHT22;28755;51.478;5.702;2023-12-28T03:42:59;10.50;99.90
43151;DHT22;28755;51.478;5.702;2023-12-28T03:45:25;10.50;99.90
43151;DHT22;28755;51.478;5.702;2023-12-28T03:47:50;10.50;99.90
43151;DHT22;28755;51.478;5.702;2023-12-28T03:50:16;10.50;99.90
43151;DHT22;28755;51.478;5.702;2023-12-28T03:52:42;10.60;99.90
43151;DHT22;28755;51.478;5.702;2023-12-28T03:55:08;10.50;99.90
43151;DHT22;28755;51.478;5.702;2023-12-28T03:57:33;10.60;99.90
43151;DHT22;28755;51.478;5.702;2023-12-28T03:59:59;10.60;99.90
43151;DHT22;28755;51.478;5.702;2023-12-28T04:02:24;10.70;99.90
43151;DHT22;28755;51.478;5.702;2023-12-28T04:04:52;10.60;99.90
43151;DHT22;28755;51.478;5.702;2023-12-28T04:07:18;10.70;99.90
43151;DHT22;28755;51.478;5.702;2023-12-28T04:09:44;10.70;99.90
43151;DHT22;28755;51.478;5.702;2023-12-28T04:12:09;10.70;99.90
43151;DHT22;28755;51.478;5.702;2023-12-28T04:14:35;10.60;99.90
43151;DHT22;28755;51.478;5.702;2023-12-28T04:17:01;10.60;99.90
43151;DHT22;28755;51.478;5.702;2023-12-28T04:19:26;10.60;99.90
43151;DHT22;28755;51.478;5.702;2023-12-28T04:21:52;10.70;99.90
43151;DHT22;28755;51.478;5.702;2023-12-28T04:24:17;10.70;99.90
43151;DHT22;28755;51.478;5.702;2023-12-28T04:26:43;10.60;99.90
43151;DHT22;28755;51.478;5.702;2023-12-28T04:29:08;10.70;99.90
43151;DHT22;28755;51.478;5.702;2023-12-28T04:31:40;10.70;99.90
43151;DHT22;28755;51.478;5.702;2023-12-28T04:34:06;10.80;99.90
43151;DHT22;28755;51.478;5.702;2023-12-28T04:36:31;10.70;99.90
43151;DHT22;28755;51.478;5.702;2023-12-28T04:38:57;10.70;99.90
43151;DHT22;28755;51.478;5.702;2023-12-28T04:41:23;10.70;99.90
43151;DHT22;28755;51.478;5.702;2023-12-28T04:43:48;10.70;99.90
43151;DHT22;28755;51.478;5.702;2023-12-28T04:46:14;10.70;99.90
43151;DHT22;28755;51.478;5.702;2023-12-28T04:48:39;10.60;99.90
43151;DHT22;28755;51.478;5.702;2023-12-28T04:51:05;10.70;99.90
43151;DHT22;28755;51.478;5.702;2023-12-28T04:53:31;10.60;99.90
43151;DHT22;28755;51.478;5.702;2023-12-28T04:55:57;10.70;99.90
43151;DHT22;28755;51.478;5.702;2023-12-28T04:58:22;10.70;99.90
43151;DHT22;28755;51.478;5.702;2023-12-28T05:00:48;10.70;99.90
43151;DHT22;28755;51.478;5.702;2023-12-28T05:03:14;10.80;99.90
43151;DHT22;28755;51.478;5.702;2023-12-28T05:05:40;10.70;99.90
43151;DHT22;28755;51.478;5.702;2023-12-28T05:08:05;10.70;99.90
43151;DHT22;28755;51.478;5.702;2023-12-28T05:10:31;10.70;99.90
43151;DHT22;28755;51.478;5.702;2023-12-28T05:12:57;10.70;99.90
43151;DHT22;28755;51.478;5.702;2023-12-28T05:15:22;10.80;99.90
43151;DHT22;28755;51.478;5.702;2023-12-28T05:17:48;10.80;99.90
43151;DHT22;28755;51.478;5.702;2023-12-28T05:20:16;10.80;99.90
43151;DHT22;28755;51.478;5.702;2023-12-28T05:22:41;11.00;99.90
43151;DHT22;28755;51.478;5.702;2023-12-28T05:25:07;11.10;99.90
43151;DHT22;28755;51.478;5.702;2023-12-28T05:27:33;11.10;99.90
43151;DHT22;28755;51.478;5.702;2023-12-28T05:29:58;11.20;99.90
43151;DHT22;28755;51.478;5.702;2023-12-28T05:32:24;11.30;99.90
43151;DHT22;28755;51.478;5.702;2023-12-28T05:34:49;11.30;99.90
43151;DHT22;28755;51.478;5.702;2023-12-28T05:37:15;11.40;99.90
43151;DHT22;28755;51.478;5.702;2023-12-28T05:39:41;11.20;99.90
43151;DHT22;28755;51.478;5.702;2023-12-28T05:42:06;11.30;99.90
43151;DHT22;28755;51.478;5.702;2023-12-28T05:44:32;11.20;99.90
43151;DHT22;28755;51.478;5.702;2023-12-28T05:46:57;11.30;99.90
43151;DHT22;28755;51.478;5.702;2023-12-28T05:49:23;11.40;99.90
43151;DHT22;28755;51.478;5.702;2023-12-28T05:51:50;11.40;99.90
43151;DHT22;28755;51.478;5.702;2023-12-28T05:54:16;11.30;99.90
43151;DHT22;28755;51.478;5.702;2023-12-28T05:56:41;11.30;99.90
43151;DHT22;28755;51.478;5.702;2023-12-28T05:59:07;11.20;99.90
43151;DHT22;28755;51.478;5.702;2023-12-28T06:01:41;11.30;99.90
43151;DHT22;28755;51.478;5.702;2023-12-28T06:04:07;11.20;99.90
43151;DHT22;28755;51.478;5.702;2023-12-28T06:06:32;11.20;99.90
43151;DHT22;28755;51.478;5.702;2023-12-28T06:08:59;11.30;99.90
43151;DHT22;28755;51.478;5.702;2023-12-28T06:11:25;11.30;99.90
43151;DHT22;28755;51.478;5.702;2023-12-28T06:13:50;11.30;99.90
43151;DHT22;28755;51.478;5.702;2023-12-28T06:16:16;11.30;99.90
43151;DHT22;28755;51.478;5.702;2023-12-28T06:18:42;11.20;99.90
43151;DHT22;28755;51.478;5.702;2023-12-28T06:21:08;11.30;99.90
43151;DHT22;28755;51.478;5.702;2023-12-28T06:23:34;11.30;99.90
43151;DHT22;28755;51.478;5.702;2023-12-28T06:26:04;11.30;99.90
43151;DHT22;28755;51.478;5.702;2023-12-28T06:28:31;11.30;99.90
43151;DHT22;28755;51.478;5.702;2023-12-28T06:30:57;11.30;99.90
43151;DHT22;28755;51.478;5.702;2023-12-28T06:33:28;11.10;99.90
43151;DHT22;28755;51.478;5.702;2023-12-28T06:35:54;11.20;99.90
43151;DHT22;28755;51.478;5.702;2023-12-28T06:38:20;11.30;99.90
43151;DHT22;28755;51.478;5.702;2023-12-28T06:40:45;11.40;99.90
43151;DHT22;28755;51.478;5.702;2023-12-28T06:43:11;11.40;99.90
43151;DHT22;28755;51.478;5.702;2023-12-28T06:45:37;11.40;99.90
43151;DHT22;28755;51.478;5.702;2023-12-28T06:48:03;11.40;99.90
43151;DHT22;28755;51.478;5.702;2023-12-28T06:50:28;11.50;99.90
43151;DHT22;28755;51.478;5.702;2023-12-28T06:52:54;11.60;99.90
43151;DHT22;28755;51.478;5.702;2023-12-28T06:55:19;11.50;99.90
43151;DHT22;28755;51.478;5.702;2023-12-28T06:57:45;11.60;99.90
43151;DHT22;28755;51.478;5.702;2023-12-28T07:00:11;11.50;99.90
43151;DHT22;28755;51.478;5.702;2023-12-28T07:02:36;11.50;99.90
43151;DHT22;28755;51.478;5.702;2023-12-28T07:05:02;11.50;99.90
43151;DHT22;28755;51.478;5.702;2023-12-28T07:07:29;11.50;99.90
43151;DHT22;28755;51.478;5.702;2023-12-28T07:09:55;11.60;99.90
43151;DHT22;28755;51.478;5.702;2023-12-28T07:12:20;11.50;99.90
43151;DHT22;28755;51.478;5.702;2023-12-28T07:14:46;11.60;99.90
43151;DHT22;28755;51.478;5.702;2023-12-28T07:17:12;11.50;99.90
43151;DHT22;28755;51.478;5.702;2023-12-28T07:19:42;11.40;99.90
43151;DHT22;28755;51.478;5.702;2023-12-28T07:22:08;11.40;99.90
43151;DHT22;28755;51.478;5.702;2023-12-28T07:24:34;11.40;99.90
43151;DHT22;28755;51.478;5.702;2023-12-28T07:26:59;11.50;99.90
43151;DHT22;28755;51.478;5.702;2023-12-28T07:29:25;11.50;99.90
43151;DHT22;28755;51.478;5.702;2023-12-28T07:31:50;11.50;99.90
43151;DHT22;28755;51.478;5.702;2023-12-28T07:34:16;11.50;99.90
43151;DHT22;28755;51.478;5.702;2023-12-28T07:36:42;11.40;99.90
43151;DHT22;28755;51.478;5.702;2023-12-28T07:39:09;11.30;99.90
43151;DHT22;28755;51.478;5.702;2023-12-28T07:41:34;11.30;99.90
43151;DHT22;28755;51.478;5.702;2023-12-28T07:44:00;11.30;99.90
43151;DHT22;28755;51.478;5.702;2023-12-28T07:46:25;11.30;99.90
43151;DHT22;28755;51.478;5.702;2023-12-28T07:48:51;11.20;99.90
43151;DHT22;28755;51.478;5.702;2023-12-28T07:51:17;11.20;99.90
43151;DHT22;28755;51.478;5.702;2023-12-28T07:53:42;11.20;99.90
43151;DHT22;28755;51.478;5.702;2023-12-28T07:56:08;11.20;99.90
43151;DHT22;28755;51.478;5.702;2023-12-28T07:58:33;11.30;99.90
43151;DHT22;28755;51.478;5.702;2023-12-28T08:00:59;11.20;99.90
43151;DHT22;28755;51.478;5.702;2023-12-28T08:03:25;11.30;99.90
43151;DHT22;28755;51.478;5.702;2023-12-28T08:05:51;11.20;99.90
43151;DHT22;28755;51.478;5.702;2023-12-28T08:08:16;11.20;99.90
43151;DHT22;28755;51.478;5.702;2023-12-28T08:10:42;11.10;99.90
43151;DHT22;28755;51.478;5.702;2023-12-28T08:13:07;11.40;99.90
43151;DHT22;28755;51.478;5.702;2023-12-28T08:15:33;11.10;99.90
43151;DHT22;28755;51.478;5.702;2023-12-28T08:17:59;11.10;99.90
43151;DHT22;28755;51.478;5.702;2023-12-28T08:20:24;11.20;99.90
43151;DHT22;28755;51.478;5.702;2023-12-28T08:22:50;11.10;99.90
43151;DHT22;28755;51.478;5.702;2023-12-28T08:25:15;11.20;99.90
43151;DHT22;28755;51.478;5.702;2023-12-28T08:27:41;11.20;99.90
43151;DHT22;28755;51.478;5.702;2023-12-28T08:30:07;11.20;99.90
43151;DHT22;28755;51.478;5.702;2023-12-28T08:32:33;11.20;99.90
43151;DHT22;28755;51.478;5.702;2023-12-28T08:34:59;11.20;99.90
43151;DHT22;28755;51.478;5.702;2023-12-28T08:37:24;11.30;99.90
43151;DHT22;28755;51.478;5.702;2023-12-28T08:39:50;11.30;99.90
43151;DHT22;28755;51.478;5.702;2023-12-28T08:42:15;11.40;99.90
43151;DHT22;28755;51.478;5.702;2023-12-28T08:44:41;11.40;99.90
43151;DHT22;28755;51.478;5.702;2023-12-28T08:47:06;11.40;99.90
43151;DHT22;28755;51.478;5.702;2023-12-28T08:49:32;11.40;99.90
43151;DHT22;28755;51.478;5.702;2023-12-28T08:51:58;11.40;99.90
43151;DHT22;28755;51.478;5.702;2023-12-28T08:54:24;11.40;99.90
43151;DHT22;28755;51.478;5.702;2023-12-28T08:56:49;11.40;99.90
43151;DHT22;28755;51.478;5.702;2023-12-28T08:59:15;11.40;99.90
43151;DHT22;28755;51.478;5.702;2023-12-28T09:01:41;11.40;99.90
43151;DHT22;28755;51.478;5.702;2023-12-28T09:04:06;11.50;99.90
43151;DHT22;28755;51.478;5.702;2023-12-28T09:06:32;11.50;99.90
43151;DHT22;28755;51.478;5.702;2023-12-28T09:08:57;11.50;99.90
43151;DHT22;28755;51.478;5.702;2023-12-28T09:11:23;11.50;99.90
43151;DHT22;28755;51.478;5.702;2023-12-28T09:13:49;11.60;99.90
43151;DHT22;28755;51.478;5.702;2023-12-28T09:16:15;11.50;99.90
43151;DHT22;28755;51.478;5.702;2023-12-28T09:18:41;11.60;99.90
43151;DHT22;28755;51.478;5.702;2023-12-28T09:21:07;11.50;99.90
43151;DHT22;28755;51.478;5.702;2023-12-28T09:23:34;11.50;99.90
43151;DHT22;28755;51.478;5.702;2023-12-28T09:26:04;11.60;99.90
43151;DHT22;28755;51.478;5.702;2023-12-28T09:28:30;11.40;99.90
43151;DHT22;28755;51.478;5.702;2023-12-28T09:30:56;11.40;99.90
43151;DHT22;28755;51.478;5.702;2023-12-28T09:33:22;11.40;99.90
43151;DHT22;28755;51.478;5.702;2023-12-28T09:35:47;11.40;99.90
43151;DHT22;28755;51.478;5.702;2023-12-28T09:38:14;11.40;99.90
43151;DHT22;28755;51.478;5.702;2023-12-28T09:40:42;11.40;99.90
43151;DHT22;28755;51.478;5.702;2023-12-28T09:45:53;11.40;99.90
43151;DHT22;28755;51.478;5.702;2023-12-28T09:48:21;11.50;99.90
43151;DHT22;28755;51.478;5.702;2023-12-28T09:50:54;11.60;99.90
43151;DHT22;28755;51.478;5.702;2023-12-28T09:53:23;11.70;99.90
43151;DHT22;28755;51.478;5.702;2023-12-28T09:55:49;11.80;99.90
43151;DHT22;28755;51.478;5.702;2023-12-28T09:58:17;11.70;99.90
43151;DHT22;28755;51.478;5.702;2023-12-28T10:00:44;11.70;99.90
43151;DHT22;28755;51.478;5.702;2023-12-28T10:03:14;11.80;99.90
43151;DHT22;28755;51.478;5.702;2023-12-28T10:05:41;11.70;99.90
43151;DHT22;28755;51.478;5.702;2023-12-28T10:08:07;11.70;99.90
43151;DHT22;28755;51.478;5.702;2023-12-28T10:10:33;11.70;99.90
43151;DHT22;28755;51.478;5.702;2023-12-28T10:13:00;11.60;99.90
43151;DHT22;28755;51.478;5.702;2023-12-28T10:15:25;11.70;99.90
43151;DHT22;28755;51.478;5.702;2023-12-28T10:17:54;11.70;99.90
43151;DHT22;28755;51.478;5.702;2023-12-28T10:20:19;11.90;99.90
43151;DHT22;28755;51.478;5.702;2023-12-28T10:22:45;11.90;99.90
43151;DHT22;28755;51.478;5.702;2023-12-28T10:25:11;12.00;99.90
43151;DHT22;28755;51.478;5.702;2023-12-28T10:27:40;11.80;99.90
43151;DHT22;28755;51.478;5.702;2023-12-28T10:30:07;11.90;99.90
43151;DHT22;28755;51.478;5.702;2023-12-28T10:32:33;11.90;99.90
43151;DHT22;28755;51.478;5.702;2023-12-28T10:34:59;12.00;99.90
43151;DHT22;28755;51.478;5.702;2023-12-28T10:37:26;11.90;99.90
43151;DHT22;28755;51.478;5.702;2023-12-28T10:39:54;12.00;99.90
43151;DHT22;28755;51.478;5.702;2023-12-28T10:42:32;12.00;99.90
43151;DHT22;28755;51.478;5.702;2023-12-28T10:45:10;12.00;99.90
43151;DHT22;28755;51.478;5.702;2023-12-28T10:47:43;11.90;99.90
43151;DHT22;28755;51.478;5.702;2023-12-28T10:50:10;12.00;99.90
43151;DHT22;28755;51.478;5.702;2023-12-28T10:52:37;12.00;99.90
43151;DHT22;28755;51.478;5.702;2023-12-28T10:55:30;12.20;99.90
43151;DHT22;28755;51.478;5.702;2023-12-28T10:58:14;12.10;99.90
43151;DHT22;28755;51.478;5.702;2023-12-28T11:00:45;12.90;99.90
43151;DHT22;28755;51.478;5.702;2023-12-28T11:03:11;13.10;99.90
43151;DHT22;28755;51.478;5.702;2023-12-28T11:05:40;13.20;99.90
43151;DHT22;28755;51.478;5.702;2023-12-28T11:08:09;13.40;99.90
43151;DHT22;28755;51.478;5.702;2023-12-28T11:10:36;13.00;99.90
43151;DHT22;28755;51.478;5.702;2023-12-28T11:13:03;12.80;99.90
43151;DHT22;28755;51.478;5.702;2023-12-28T11:15:31;13.40;99.90
43151;DHT22;28755;51.478;5.702;2023-12-28T11:17:57;13.80;99.90
43151;DHT22;28755;51.478;5.702;2023-12-28T11:20:22;13.50;99.90
43151;DHT22;28755;51.478;5.702;2023-12-28T11:22:49;13.20;99.90
43151;DHT22;28755;51.478;5.702;2023-12-28T11:25:17;13.10;99.90
43151;DHT22;28755;51.478;5.702;2023-12-28T11:27:44;13.10;99.90
43151;DHT22;28755;51.478;5.702;2023-12-28T11:30:11;13.20;99.90
43151;DHT22;28755;51.478;5.702;2023-12-28T11:32:37;13.20;99.90
43151;DHT22;28755;51.478;5.702;2023-12-28T11:35:06;13.20;99.90
43151;DHT22;28755;51.478;5.702;2023-12-28T11:37:32;13.00;99.90
43151;DHT22;28755;51.478;5.702;2023-12-28T11:40:10;13.00;99.90
43151;DHT22;28755;51.478;5.702;2023-12-28T11:42:36;12.70;99.90
43151;DHT22;28755;51.478;5.702;2023-12-28T11:45:01;12.70;99.90
43151;DHT22;28755;51.478;5.702;2023-12-28T11:47:27;12.50;99.90
43151;DHT22;28755;51.478;5.702;2023-12-28T11:49:53;12.50;99.90
43151;DHT22;28755;51.478;5.702;2023-12-28T11:52:30;12.60;99.90
43151;DHT22;28755;51.478;5.702;2023-12-28T11:54:56;12.40;99.90
43151;DHT22;28755;51.478;5.702;2023-12-28T11:57:23;12.40;99.90
43151;DHT22;28755;51.478;5.702;2023-12-28T11:59:59;12.40;99.90
43151;DHT22;28755;51.478;5.702;2023-12-28T12:02:25;12.40;99.90
43151;DHT22;28755;51.478;5.702;2023-12-28T12:04:51;12.40;99.90
43151;DHT22;28755;51.478;5.702;2023-12-28T12:07:17;12.40;99.90
43151;DHT22;28755;51.478;5.702;2023-12-28T12:09:43;12.40;99.90
43151;DHT22;28755;51.478;5.702;2023-12-28T12:12:08;12.40;99.90
43151;DHT22;28755;51.478;5.702;2023-12-28T12:14:34;12.30;99.90
43151;DHT22;28755;51.478;5.702;2023-12-28T12:17:00;12.30;99.90
43151;DHT22;28755;51.478;5.702;2023-12-28T12:19:27;12.40;99.90
43151;DHT22;28755;51.478;5.702;2023-12-28T12:21:53;12.30;99.90
43151;DHT22;28755;51.478;5.702;2023-12-28T12:24:19;12.30;99.90
43151;DHT22;28755;51.478;5.702;2023-12-28T12:26:49;12.30;99.90
43151;DHT22;28755;51.478;5.702;2023-12-28T12:29:15;12.20;99.90
43151;DHT22;28755;51.478;5.702;2023-12-28T12:31:41;12.20;99.90
43151;DHT22;28755;51.478;5.702;2023-12-28T12:34:08;12.10;99.90
43151;DHT22;28755;51.478;5.702;2023-12-28T12:36:34;12.40;99.90
43151;DHT22;28755;51.478;5.702;2023-12-28T12:39:00;12.30;99.90
43151;DHT22;28755;51.478;5.702;2023-12-28T12:41:26;12.30;99.90
43151;DHT22;28755;51.478;5.702;2023-12-28T12:43:52;12.20;99.90
43151;DHT22;28755;51.478;5.702;2023-12-28T12:46:21;12.30;99.90
43151;DHT22;28755;51.478;5.702;2023-12-28T12:49:00;12.40;99.90
43151;DHT22;28755;51.478;5.702;2023-12-28T12:51:29;12.40;99.90
43151;DHT22;28755;51.478;5.702;2023-12-28T12:53:59;12.50;99.90
43151;DHT22;28755;51.478;5.702;2023-12-28T12:56:26;12.30;99.90
43151;DHT22;28755;51.478;5.702;2023-12-28T12:58:52;12.30;99.90
43151;DHT22;28755;51.478;5.702;2023-12-28T13:01:18;12.30;99.90
43151;DHT22;28755;51.478;5.702;2023-12-28T13:03:45;12.40;99.90
43151;DHT22;28755;51.478;5.702;2023-12-28T13:06:11;12.30;99.90
43151;DHT22;28755;51.478;5.702;2023-12-28T13:08:36;12.40;99.90
43151;DHT22;28755;51.478;5.702;2023-12-28T13:11:02;12.30;99.90
43151;DHT22;28755;51.478;5.702;2023-12-28T13:13:28;12.30;99.90
43151;DHT22;28755;51.478;5.702;2023-12-28T13:15:53;12.40;99.90
43151;DHT22;28755;51.478;5.702;2023-12-28T13:18:19;12.30;99.90
43151;DHT22;28755;51.478;5.702;2023-12-28T13:20:44;12.30;99.90
43151;DHT22;28755;51.478;5.702;2023-12-28T13:23:11;12.30;99.90
43151;DHT22;28755;51.478;5.702;2023-12-28T13:25:37;12.30;99.90
43151;DHT22;28755;51.478;5.702;2023-12-28T13:28:03;12.30;99.90
43151;DHT22;28755;51.478;5.702;2023-12-28T13:30:28;12.30;99.90
43151;DHT22;28755;51.478;5.702;2023-12-28T13:32:55;12.30;99.90
43151;DHT22;28755;51.478;5.702;2023-12-28T13:35:24;12.30;99.90
43151;DHT22;28755;51.478;5.702;2023-12-28T13:37:49;12.30;99.90
43151;DHT22;28755;51.478;5.702;2023-12-28T13:40:15;12.40;99.90
43151;DHT22;28755;51.478;5.702;2023-12-28T13:42:42;12.40;99.90
43151;DHT22;28755;51.478;5.702;2023-12-28T13:45:08;12.40;99.90
43151;DHT22;28755;51.478;5.702;2023-12-28T13:47:34;12.40;99.90
43151;DHT22;28755;51.478;5.702;2023-12-28T13:49:59;12.50;99.90
43151;DHT22;28755;51.478;5.702;2023-12-28T13:52:25;12.40;99.90
43151;DHT22;28755;51.478;5.702;2023-12-28T13:54:50;12.40;99.90
43151;DHT22;28755;51.478;5.702;2023-12-28T13:57:16;12.50;99.90
43151;DHT22;28755;51.478;5.702;2023-12-28T13:59:42;12.60;99.90
43151;DHT22;28755;51.478;5.702;2023-12-28T14:02:07;12.40;99.90
43151;DHT22;28755;51.478;5.702;2023-12-28T14:04:33;12.40;99.90
43151;DHT22;28755;51.478;5.702;2023-12-28T14:06:58;12.40;99.90
43151;DHT22;28755;51.478;5.702;2023-12-28T14:09:24;12.50;99.90
43151;DHT22;28755;51.478;5.702;2023-12-28T14:11:50;12.50;99.90
43151;DHT22;28755;51.478;5.702;2023-12-28T14:14:15;12.40;99.90
43151;DHT22;28755;51.478;5.702;2023-12-28T14:16:41;12.40;99.90
43151;DHT22;28755;51.478;5.702;2023-12-28T14:19:07;12.50;99.90
43151;DHT22;28755;51.478;5.702;2023-12-28T14:21:38;12.40;99.90
43151;DHT22;28755;51.478;5.702;2023-12-28T14:24:05;12.40;99.90
43151;DHT22;28755;51.478;5.702;2023-12-28T14:26:32;12.30;99.90
43151;DHT22;28755;51.478;5.702;2023-12-28T14:29:02;12.30;99.90
43151;DHT22;28755;51.478;5.702;2023-12-28T14:31:32;12.20;99.90
43151;DHT22;28755;51.478;5.702;2023-12-28T14:33:58;12.20;99.90
43151;DHT22;28755;51.478;5.702;2023-12-28T14:36:30;12.20;99.90
43151;DHT22;28755;51.478;5.702;2023-12-28T14:38:58;12.20;99.90
43151;DHT22;28755;51.478;5.702;2023-12-28T14:41:24;12.10;99.90
43151;DHT22;28755;51.478;5.702;2023-12-28T14:43:49;12.20;99.90
43151;DHT22;28755;51.478;5.702;2023-12-28T14:46:15;12.00;99.90
43151;DHT22;28755;51.478;5.702;2023-12-28T14:48:40;12.10;99.90
43151;DHT22;28755;51.478;5.702;2023-12-28T14:51:06;12.30;99.90
43151;DHT22;28755;51.478;5.702;2023-12-28T14:53:32;12.00;99.90
43151;DHT22;28755;51.478;5.702;2023-12-28T14:55:57;12.10;99.90
43151;DHT22;28755;51.478;5.702;2023-12-28T14:58:25;12.10;99.90
43151;DHT22;28755;51.478;5.702;2023-12-28T15:00:52;12.20;99.90
43151;DHT22;28755;51.478;5.702;2023-12-28T15:03:17;12.10;99.90
43151;DHT22;28755;51.478;5.702;2023-12-28T15:05:43;12.00;99.90
43151;DHT22;28755;51.478;5.702;2023-12-28T15:08:09;12.00;99.90
43151;DHT22;28755;51.478;5.702;2023-12-28T15:10:35;12.10;99.90
43151;DHT22;28755;51.478;5.702;2023-12-28T15:13:01;12.00;99.90
43151;DHT22;28755;51.478;5.702;2023-12-28T15:15:27;12.00;99.90
43151;DHT22;28755;51.478;5.702;2023-12-28T15:17:53;12.00;99.90
43151;DHT22;28755;51.478;5.702;2023-12-28T15:20:19;12.00;99.90
43151;DHT22;28755;51.478;5.702;2023-12-28T15:22:45;12.00;99.90
43151;DHT22;28755;51.478;5.702;2023-12-28T15:25:11;12.00;99.90
43151;DHT22;28755;51.478;5.702;2023-12-28T15:27:37;12.00;99.90